sensor_id;sensor_type;location;lat;lon;timestamp;pressure;altitude;pressure_sealevel;temperature;humidity
84358;BME280;74548;47.712;9.272;2024-03-02T00:01:06;94593.44;;;11.97;61.30
84358;BME280;74548;47.712;9.272;2024-03-02T00:03:32;94595.66;;;11.95;61.37
84358;BME280;74548;47.712;9.272;2024-03-02T00:05:58;94593.28;;;11.94;61.47
84358;BME280;74548;47.712;9.272;2024-03-02T00:08:25;94592.50;;;11.93;61.22
84358;BME280;74548;47.712;9.272;2024-03-02T00:10:58;94581.19;;;11.91;61.21
84358;BME280;74548;47.712;9.272;2024-03-02T00:13:23;94587.75;;;11.90;61.40
84358;BME280;74548;47.712;9.272;2024-03-02T00:15:53;94578.84;;;11.90;61.70
84358;BME280;74548;47.712;9.272;2024-03-02T00:18:39;94575.31;;;11.89;61.48
84358;BME280;74548;47.712;9.272;2024-03-02T00:21:06;94569.44;;;11.87;61.49
84358;BME280;74548;47.712;9.272;2024-03-02T00:23:35;94565.97;;;11.87;61.51
84358;BME280;74548;47.712;9.272;2024-03-02T00:26:01;94565.47;;;11.84;61.37
84358;BME280;74548;47.712;9.272;2024-03-02T00:28:31;94566.56;;;11.83;61.47
84358;BME280;74548;47.712;9.272;2024-03-02T00:31:07;94574.97;;;11.82;61.77
84358;BME280;74548;47.712;9.272;2024-03-02T00:33:36;94576.09;;;11.81;61.79
84358;BME280;74548;47.712;9.272;2024-03-02T00:36:03;94582.63;;;11.80;61.63
84358;BME280;74548;47.712;9.272;2024-03-02T00:38:30;94576.25;;;11.76;61.66
84358;BME280;74548;47.712;9.272;2024-03-02T00:40:58;94580.56;;;11.77;61.59
84358;BME280;74548;47.712;9.272;2024-03-02T00:43:43;94580.09;;;11.75;61.73
84358;BME280;74548;47.712;9.272;2024-03-02T00:46:11;94576.59;;;11.74;61.66
84358;BME280;74548;47.712;9.272;2024-03-02T00:48:36;94579.59;;;11.73;61.78
84358;BME280;74548;47.712;9.272;2024-03-02T00:51:03;94588.06;;;11.71;61.71
84358;BME280;74548;47.712;9.272;2024-03-02T00:53:31;94594.56;;;11.70;61.69
84358;BME280;74548;47.712;9.272;2024-03-02T00:56:01;94604.13;;;11.68;61.67
84358;BME280;74548;47.712;9.272;2024-03-02T00:58:26;94600.63;;;11.67;62.14
84358;BME280;74548;47.712;9.272;2024-03-02T01:00:52;94608.25;;;11.65;62.08
84358;BME280;74548;47.712;9.272;2024-03-02T01:03:17;94608.56;;;11.63;62.02
84358;BME280;74548;47.712;9.272;2024-03-02T01:05:44;94612.84;;;11.65;62.11
84358;BME280;74548;47.712;9.272;2024-03-02T01:10:29;94608.41;;;11.60;61.69
84358;BME280;74548;47.712;9.272;2024-03-02T01:12:54;94620.31;;;11.59;62.12
84358;BME280;74548;47.712;9.272;2024-03-02T01:15:19;94611.44;;;11.58;62.12
84358;BME280;74548;47.712;9.272;2024-03-02T01:17:46;94614.44;;;11.57;62.08
84358;BME280;74548;47.712;9.272;2024-03-02T01:20:11;94626.03;;;11.57;61.90
84358;BME280;74548;47.712;9.272;2024-03-02T01:22:36;94616.69;;;11.55;62.15
84358;BME280;74548;47.712;9.272;2024-03-02T01:25:02;94630.19;;;11.55;61.93
84358;BME280;74548;47.712;9.272;2024-03-02T01:27:27;94616.97;;;11.53;62.32
84358;BME280;74548;47.712;9.272;2024-03-02T01:29:53;94618.91;;;11.53;62.19
84358;BME280;74548;47.712;9.272;2024-03-02T01:32:20;94612.69;;;11.52;62.17
84358;BME280;74548;47.712;9.272;2024-03-02T01:34:45;94616.53;;;11.51;62.40
84358;BME280;74548;47.712;9.272;2024-03-02T01:37:10;94613.81;;;11.51;62.33
84358;BME280;74548;47.712;9.272;2024-03-02T01:39:36;94616.81;;;11.50;62.32
84358;BME280;74548;47.712;9.272;2024-03-02T01:42:01;94610.94;;;11.48;62.52
84358;BME280;74548;47.712;9.272;2024-03-02T01:44:27;94614.47;;;11.48;62.24
84358;BME280;74548;47.712;9.272;2024-03-02T01:46:52;94611.25;;;11.46;62.47
84358;BME280;74548;47.712;9.272;2024-03-02T01:49:17;94613.97;;;11.46;62.14
84358;BME280;74548;47.712;9.272;2024-03-02T01:51:44;94615.41;;;11.44;62.43
84358;BME280;74548;47.712;9.272;2024-03-02T01:54:09;94621.13;;;11.42;62.29
84358;BME280;74548;47.712;9.272;2024-03-02T01:56:34;94623.00;;;11.42;62.61
84358;BME280;74548;47.712;9.272;2024-03-02T01:59:00;94618.72;;;11.41;62.33
84358;BME280;74548;47.712;9.272;2024-03-02T02:01:25;94612.53;;;11.40;62.42
84358;BME280;74548;47.712;9.272;2024-03-02T02:03:51;94610.97;;;11.39;62.33
84358;BME280;74548;47.712;9.272;2024-03-02T02:06:17;94610.47;;;11.37;62.56
84358;BME280;74548;47.712;9.272;2024-03-02T02:08:42;94607.75;;;11.37;62.66
84358;BME280;74548;47.712;9.272;2024-03-02T02:11:08;94607.28;;;11.35;62.93
84358;BME280;74548;47.712;9.272;2024-03-02T02:13:33;94603.78;;;11.34;62.68
84358;BME280;74548;47.712;9.272;2024-03-02T02:16:08;94612.22;;;11.33;62.27
84358;BME280;74548;47.712;9.272;2024-03-02T02:18:34;94604.13;;;11.33;62.52
84358;BME280;74548;47.712;9.272;2024-03-02T02:21:01;94602.50;;;11.32;62.57
84358;BME280;74548;47.712;9.272;2024-03-02T02:23:26;94602.84;;;11.30;62.34
84358;BME280;74548;47.712;9.272;2024-03-02T02:25:52;94606.97;;;11.28;62.60
84358;BME280;74548;47.712;9.272;2024-03-02T02:28:17;94608.09;;;11.27;62.79
84358;BME280;74548;47.712;9.272;2024-03-02T02:30:42;94614.28;;;11.27;62.89
84358;BME280;74548;47.712;9.272;2024-03-02T02:33:08;94611.88;;;11.26;62.50
84358;BME280;74548;47.712;9.272;2024-03-02T02:35:34;94604.91;;;11.25;62.68
84358;BME280;74548;47.712;9.272;2024-03-02T02:38:00;94599.03;;;11.23;62.53
84358;BME280;74548;47.712;9.272;2024-03-02T02:40:26;94592.03;;;11.22;62.42
84358;BME280;74548;47.712;9.272;2024-03-02T02:42:51;94598.53;;;11.21;62.57
84358;BME280;74548;47.712;9.272;2024-03-02T02:45:17;94595.84;;;11.21;62.73
84358;BME280;74548;47.712;9.272;2024-03-02T02:47:43;94596.97;;;11.20;62.96
84358;BME280;74548;47.712;9.272;2024-03-02T02:50:10;94596.16;;;11.19;62.73
84358;BME280;74548;47.712;9.272;2024-03-02T02:52:37;94599.97;;;11.18;62.84
84358;BME280;74548;47.712;9.272;2024-03-02T02:55:04;94591.06;;;11.18;62.87
84358;BME280;74548;47.712;9.272;2024-03-02T02:57:34;94589.50;;;11.17;62.50
84358;BME280;74548;47.712;9.272;2024-03-02T03:00:14;94594.41;;;11.14;62.59
84358;BME280;74548;47.712;9.272;2024-03-02T03:02:44;94603.63;;;11.13;62.95
84358;BME280;74548;47.712;9.272;2024-03-02T03:05:11;94600.94;;;11.13;63.08
84358;BME280;74548;47.712;9.272;2024-03-02T03:07:37;94602.00;;;11.12;62.58
84358;BME280;74548;47.712;9.272;2024-03-02T03:10:03;94605.84;;;11.11;63.00
84358;BME280;74548;47.712;9.272;2024-03-02T03:12:30;94610.44;;;11.11;63.01
84358;BME280;74548;47.712;9.272;2024-03-02T03:14:55;94606.97;;;11.10;62.78
84358;BME280;74548;47.712;9.272;2024-03-02T03:19:42;94616.16;;;11.09;62.95
84358;BME280;74548;47.712;9.272;2024-03-02T03:22:07;94611.88;;;11.08;63.05
84358;BME280;74548;47.712;9.272;2024-03-02T03:24:33;94610.28;;;11.07;62.62
84358;BME280;74548;47.712;9.272;2024-03-02T03:26:58;94609.50;;;11.07;63.10
84358;BME280;74548;47.712;9.272;2024-03-02T03:29:23;94605.19;;;11.06;62.70
84358;BME280;74548;47.712;9.272;2024-03-02T03:31:49;94600.91;;;11.05;63.02
84358;BME280;74548;47.712;9.272;2024-03-02T03:34:14;94603.59;;;11.05;62.87
84358;BME280;74548;47.712;9.272;2024-03-02T03:36:41;94606.59;;;11.03;63.10
84358;BME280;74548;47.712;9.272;2024-03-02T03:39:06;94610.44;;;11.02;62.93
84358;BME280;74548;47.712;9.272;2024-03-02T03:41:32;94609.63;;;11.02;63.09
84358;BME280;74548;47.712;9.272;2024-03-02T03:43:57;94612.34;;;11.02;63.32
84358;BME280;74548;47.712;9.272;2024-03-02T03:46:22;94614.53;;;11.00;62.92
84358;BME280;74548;47.712;9.272;2024-03-02T03:48:48;94618.84;;;11.01;62.95
84358;BME280;74548;47.712;9.272;2024-03-02T03:51:13;94609.16;;;11.00;62.64
84358;BME280;74548;47.712;9.272;2024-03-02T03:53:39;94621.84;;;10.99;62.76
84358;BME280;74548;47.712;9.272;2024-03-02T03:56:04;94620.28;;;10.98;63.36
84358;BME280;74548;47.712;9.272;2024-03-02T03:58:30;94608.69;;;10.98;63.02
84358;BME280;74548;47.712;9.272;2024-03-02T04:00:55;94603.59;;;10.96;63.31
84358;BME280;74548;47.712;9.272;2024-03-02T04:03:21;94597.69;;;10.94;63.42
84358;BME280;74548;47.712;9.272;2024-03-02T04:05:47;94604.69;;;10.95;62.84
84358;BME280;74548;47.712;9.272;2024-03-02T04:08:12;94598.50;;;10.95;62.96
84358;BME280;74548;47.712;9.272;2024-03-02T04:10:38;94600.72;;;10.92;62.98
84358;BME280;74548;47.712;9.272;2024-03-02T04:13:03;94600.72;;;10.92;62.80
84358;BME280;74548;47.712;9.272;2024-03-02T04:15:29;94601.06;;;10.91;63.04
84358;BME280;74548;47.712;9.272;2024-03-02T04:17:54;94596.75;;;10.90;63.35
84358;BME280;74548;47.712;9.272;2024-03-02T04:20:20;94596.75;;;10.90;63.52
84358;BME280;74548;47.712;9.272;2024-03-02T04:22:45;94598.97;;;10.88;63.25
84358;BME280;74548;47.712;9.272;2024-03-02T04:25:11;94607.88;;;10.88;63.13
84358;BME280;74548;47.712;9.272;2024-03-02T04:27:36;94605.47;;;10.87;63.31
84358;BME280;74548;47.712;9.272;2024-03-02T04:32:24;94616.25;;;10.87;63.36
84358;BME280;74548;47.712;9.272;2024-03-02T04:34:50;94605.00;;;10.85;63.14
84358;BME280;74548;47.712;9.272;2024-03-02T04:37:15;94609.59;;;10.84;63.26
84358;BME280;74548;47.712;9.272;2024-03-02T04:39:40;94614.19;;;10.84;63.58
84358;BME280;74548;47.712;9.272;2024-03-02T04:42:06;94606.44;;;10.82;62.98
84358;BME280;74548;47.712;9.272;2024-03-02T04:44:31;94613.72;;;10.82;63.46
84358;BME280;74548;47.712;9.272;2024-03-02T04:46:56;94609.41;;;10.81;63.04
84358;BME280;74548;47.712;9.272;2024-03-02T04:49:22;94608.63;;;10.80;63.37
84358;BME280;74548;47.712;9.272;2024-03-02T04:51:48;94606.25;;;10.79;63.43
84358;BME280;74548;47.712;9.272;2024-03-02T04:54:13;94610.84;;;10.78;63.00
84358;BME280;74548;47.712;9.272;2024-03-02T04:56:39;94612.75;;;10.78;63.46
84358;BME280;74548;47.712;9.272;2024-03-02T04:59:17;94620.06;;;10.77;63.62
84358;BME280;74548;47.712;9.272;2024-03-02T05:01:43;94621.47;;;10.75;63.60
84358;BME280;74548;47.712;9.272;2024-03-02T05:04:09;94633.88;;;10.76;63.62
84358;BME280;74548;47.712;9.272;2024-03-02T05:06:37;94629.56;;;10.75;63.23
84358;BME280;74548;47.712;9.272;2024-03-02T05:09:03;94628.78;;;10.74;63.35
84358;BME280;74548;47.712;9.272;2024-03-02T05:11:28;94631.47;;;10.74;63.25
84358;BME280;74548;47.712;9.272;2024-03-02T05:14:07;94637.19;;;10.73;63.20
84358;BME280;74548;47.712;9.272;2024-03-02T05:16:33;94624.78;;;10.72;63.64
84358;BME280;74548;47.712;9.272;2024-03-02T05:18:59;94632.09;;;10.71;63.25
84358;BME280;74548;47.712;9.272;2024-03-02T05:21:24;94627.81;;;10.70;63.17
84358;BME280;74548;47.712;9.272;2024-03-02T05:23:50;94629.72;;;10.69;63.24
84358;BME280;74548;47.712;9.272;2024-03-02T05:26:15;94622.72;;;10.68;63.29
84358;BME280;74548;47.712;9.272;2024-03-02T05:28:41;94622.72;;;10.68;63.57
84358;BME280;74548;47.712;9.272;2024-03-02T05:31:10;94621.91;;;10.68;63.63
84358;BME280;74548;47.712;9.272;2024-03-02T05:33:37;94623.81;;;10.67;63.03
84358;BME280;74548;47.712;9.272;2024-03-02T05:36:03;94626.03;;;10.65;63.28
84358;BME280;74548;47.712;9.272;2024-03-02T05:38:29;94627.94;;;10.65;63.57
84358;BME280;74548;47.712;9.272;2024-03-02T05:40:54;94624.44;;;10.64;63.03
84358;BME280;74548;47.712;9.272;2024-03-02T05:43:20;94631.75;;;10.64;63.23
84358;BME280;74548;47.712;9.272;2024-03-02T05:45:45;94643.66;;;10.63;63.27
84358;BME280;74548;47.712;9.272;2024-03-02T05:50:39;94635.88;;;10.61;63.45
84358;BME280;74548;47.712;9.272;2024-03-02T05:53:05;94631.59;;;10.60;63.50
84358;BME280;74548;47.712;9.272;2024-03-02T05:55:30;94628.91;;;10.60;63.41
84358;BME280;74548;47.712;9.272;2024-03-02T05:57:56;94624.63;;;10.59;63.30
84358;BME280;74548;47.712;9.272;2024-03-02T06:03:10;94629.50;;;10.57;63.38
84358;BME280;74548;47.712;9.272;2024-03-02T06:05:35;94634.91;;;10.57;63.64
84358;BME280;74548;47.712;9.272;2024-03-02T06:08:01;94637.59;;;10.57;63.52
84358;BME280;74548;47.712;9.272;2024-03-02T06:10:26;94638.72;;;10.56;63.61
84358;BME280;74548;47.712;9.272;2024-03-02T06:12:51;94642.50;;;10.55;63.57
84358;BME280;74548;47.712;9.272;2024-03-02T06:15:17;94635.53;;;10.54;63.38
84358;BME280;74548;47.712;9.272;2024-03-02T06:17:42;94638.22;;;10.54;63.64
84358;BME280;74548;47.712;9.272;2024-03-02T06:20:08;94638.22;;;10.54;63.57
84358;BME280;74548;47.712;9.272;2024-03-02T06:22:34;94639.34;;;10.53;63.34
84358;BME280;74548;47.712;9.272;2024-03-02T06:27:21;94641.22;;;10.53;63.42
84358;BME280;74548;47.712;9.272;2024-03-02T06:29:47;94639.63;;;10.52;63.37
84358;BME280;74548;47.712;9.272;2024-03-02T06:32:13;94651.22;;;10.52;63.85
84358;BME280;74548;47.712;9.272;2024-03-02T06:36:55;94638.84;;;10.51;63.40
84358;BME280;74548;47.712;9.272;2024-03-02T06:39:21;94655.03;;;10.51;63.94
84358;BME280;74548;47.712;9.272;2024-03-02T06:41:46;94652.34;;;10.51;63.40
84358;BME280;74548;47.712;9.272;2024-03-02T06:44:14;94652.34;;;10.51;63.63
84358;BME280;74548;47.712;9.272;2024-03-02T06:46:40;94659.63;;;10.51;63.50
84358;BME280;74548;47.712;9.272;2024-03-02T06:49:05;94651.53;;;10.51;63.42
84358;BME280;74548;47.712;9.272;2024-03-02T06:51:30;94657.22;;;10.49;64.01
84358;BME280;74548;47.712;9.272;2024-03-02T06:53:56;94649.16;;;10.49;64.01
84358;BME280;74548;47.712;9.272;2024-03-02T06:56:21;94651.06;;;10.49;63.27
84358;BME280;74548;47.712;9.272;2024-03-02T06:58:46;94657.22;;;10.49;63.61
84358;BME280;74548;47.712;9.272;2024-03-02T07:01:12;94655.66;;;10.48;63.50
84358;BME280;74548;47.712;9.272;2024-03-02T07:03:38;94646.78;;;10.48;63.79
84358;BME280;74548;47.712;9.272;2024-03-02T07:06:05;94648.69;;;10.47;63.70
84358;BME280;74548;47.712;9.272;2024-03-02T07:08:30;94652.47;;;10.46;64.07
84358;BME280;74548;47.712;9.272;2024-03-02T07:10:55;94663.25;;;10.46;63.70
84358;BME280;74548;47.712;9.272;2024-03-02T07:13:22;94663.25;;;10.46;63.55
84358;BME280;74548;47.712;9.272;2024-03-02T07:15:47;94663.56;;;10.44;63.56
84358;BME280;74548;47.712;9.272;2024-03-02T07:18:35;94660.09;;;10.44;63.80
84358;BME280;74548;47.712;9.272;2024-03-02T07:21:06;94654.69;;;10.44;63.49
84358;BME280;74548;47.712;9.272;2024-03-02T07:23:32;94647.69;;;10.43;64.12
84358;BME280;74548;47.712;9.272;2024-03-02T07:25:57;94653.91;;;10.43;64.00
84358;BME280;74548;47.712;9.272;2024-03-02T07:28:25;94651.19;;;10.43;63.70
84358;BME280;74548;47.712;9.272;2024-03-02T07:33:12;94656.91;;;10.42;63.39
84358;BME280;74548;47.712;9.272;2024-03-02T07:35:37;94656.91;;;10.42;63.79
84358;BME280;74548;47.712;9.272;2024-03-02T07:38:03;94662.28;;;10.42;63.63
84358;BME280;74548;47.712;9.272;2024-03-02T07:40:28;94656.09;;;10.41;63.79
84358;BME280;74548;47.712;9.272;2024-03-02T07:42:54;94652.63;;;10.41;63.55
84358;BME280;74548;47.712;9.272;2024-03-02T07:45:20;94653.69;;;10.40;63.87
84358;BME280;74548;47.712;9.272;2024-03-02T07:47:46;94659.09;;;10.40;64.06
84358;BME280;74548;47.712;9.272;2024-03-02T07:50:11;94649.13;;;10.40;63.46
84358;BME280;74548;47.712;9.272;2024-03-02T07:52:37;94647.50;;;10.39;63.74
84358;BME280;74548;47.712;9.272;2024-03-02T07:55:02;94644.03;;;10.39;63.71
84358;BME280;74548;47.712;9.272;2024-03-02T07:57:27;94646.72;;;10.39;63.53
84358;BME280;74548;47.712;9.272;2024-03-02T07:59:53;94652.13;;;10.39;64.14
84358;BME280;74548;47.712;9.272;2024-03-02T08:02:18;94654.03;;;10.38;63.62
84358;BME280;74548;47.712;9.272;2024-03-02T08:04:44;94645.94;;;10.38;63.34
84358;BME280;74548;47.712;9.272;2024-03-02T08:07:11;94642.44;;;10.38;63.67
84358;BME280;74548;47.712;9.272;2024-03-02T08:09:36;94645.94;;;10.38;63.51
84358;BME280;74548;47.712;9.272;2024-03-02T08:12:02;94641.66;;;10.37;63.50
84358;BME280;74548;47.712;9.272;2024-03-02T08:14:27;94638.97;;;10.37;63.39
84358;BME280;74548;47.712;9.272;2024-03-02T08:16:52;94647.84;;;10.38;64.07
84358;BME280;74548;47.712;9.272;2024-03-02T08:19:18;94644.34;;;10.37;63.49
84358;BME280;74548;47.712;9.272;2024-03-02T08:21:43;94638.13;;;10.37;63.47
84358;BME280;74548;47.712;9.272;2024-03-02T08:26:23;94633.56;;;10.37;63.82
84358;BME280;74548;47.712;9.272;2024-03-02T08:28:48;94630.03;;;10.37;63.92
84358;BME280;74548;47.712;9.272;2024-03-02T08:31:14;94638.97;;;10.37;63.64
84358;BME280;74548;47.712;9.272;2024-03-02T08:33:39;94622.78;;;10.37;63.51
84358;BME280;74548;47.712;9.272;2024-03-02T08:36:05;94623.56;;;10.38;63.91
84358;BME280;74548;47.712;9.272;2024-03-02T08:38:31;94631.66;;;10.38;63.69
84358;BME280;74548;47.712;9.272;2024-03-02T08:40:56;94623.56;;;10.38;63.85
84358;BME280;74548;47.712;9.272;2024-03-02T08:43:22;94630.53;;;10.39;63.53
84358;BME280;74548;47.712;9.272;2024-03-02T08:45:48;94625.16;;;10.39;63.55
84358;BME280;74548;47.712;9.272;2024-03-02T08:48:15;94624.34;;;10.38;63.76
84358;BME280;74548;47.712;9.272;2024-03-02T08:50:40;94618.97;;;10.38;63.68
84358;BME280;74548;47.712;9.272;2024-03-02T08:53:05;94619.75;;;10.39;63.67
84358;BME280;74548;47.712;9.272;2024-03-02T08:55:31;94623.25;;;10.39;63.58
84358;BME280;74548;47.712;9.272;2024-03-02T08:57:57;94622.94;;;10.41;63.78
84358;BME280;74548;47.712;9.272;2024-03-02T09:02:47;94621.03;;;10.41;63.83
84358;BME280;74548;47.712;9.272;2024-03-02T09:05:13;94627.22;;;10.42;63.81
84358;BME280;74548;47.712;9.272;2024-03-02T09:07:38;94629.91;;;10.42;63.75
84358;BME280;74548;47.712;9.272;2024-03-02T09:10:08;94633.41;;;10.42;63.92
84358;BME280;74548;47.712;9.272;2024-03-02T09:12:34;94623.75;;;10.41;63.63
84358;BME280;74548;47.712;9.272;2024-03-02T09:15:00;94626.09;;;10.43;63.33
84358;BME280;74548;47.712;9.272;2024-03-02T09:17:26;94618.03;;;10.43;63.40
84358;BME280;74548;47.712;9.272;2024-03-02T09:19:51;94617.22;;;10.42;63.51
84358;BME280;74548;47.712;9.272;2024-03-02T09:22:18;94612.94;;;10.41;63.85
84358;BME280;74548;47.712;9.272;2024-03-02T09:24:44;94608.34;;;10.42;63.29
84358;BME280;74548;47.712;9.272;2024-03-02T09:27:09;94595.97;;;10.41;63.37
84358;BME280;74548;47.712;9.272;2024-03-02T09:29:35;94603.75;;;10.42;63.69
84358;BME280;74548;47.712;9.272;2024-03-02T09:32:00;94601.84;;;10.43;63.78
84358;BME280;74548;47.712;9.272;2024-03-02T09:34:25;94598.34;;;10.42;63.69
84358;BME280;74548;47.712;9.272;2024-03-02T09:36:51;94590.25;;;10.42;63.94
84358;BME280;74548;47.712;9.272;2024-03-02T09:39:17;94590.25;;;10.42;63.41
84358;BME280;74548;47.712;9.272;2024-03-02T09:41:43;94592.94;;;10.42;63.34
84358;BME280;74548;47.712;9.272;2024-03-02T09:44:09;94582.97;;;10.43;63.83
84358;BME280;74548;47.712;9.272;2024-03-02T09:46:34;94584.88;;;10.42;64.01
84358;BME280;74548;47.712;9.272;2024-03-02T09:49:02;94585.66;;;10.43;63.69
84358;BME280;74548;47.712;9.272;2024-03-02T09:51:27;94573.00;;;10.43;63.62
84358;BME280;74548;47.712;9.272;2024-03-02T09:53:54;94573.28;;;10.42;63.57
84358;BME280;74548;47.712;9.272;2024-03-02T09:56:21;94575.97;;;10.42;63.62
84358;BME280;74548;47.712;9.272;2024-03-02T10:01:17;94572.16;;;10.43;63.64
84358;BME280;74548;47.712;9.272;2024-03-02T10:03:44;94573.78;;;10.44;63.53
84358;BME280;74548;47.712;9.272;2024-03-02T10:06:27;94574.56;;;10.44;63.28
84358;BME280;74548;47.712;9.272;2024-03-02T10:08:53;94576.16;;;10.45;63.61
84358;BME280;74548;47.712;9.272;2024-03-02T10:11:30;94566.16;;;10.46;63.29
84358;BME280;74548;47.712;9.272;2024-03-02T10:14:14;94565.69;;;10.44;64.16
84358;BME280;74548;47.712;9.272;2024-03-02T10:16:41;94556.59;;;10.40;64.22
84358;BME280;74548;47.712;9.272;2024-03-02T10:19:23;94553.44;;;10.38;64.26
84358;BME280;74548;47.712;9.272;2024-03-02T10:21:50;94556.16;;;10.38;64.52
84358;BME280;74548;47.712;9.272;2024-03-02T10:24:19;94561.84;;;10.36;64.74
84358;BME280;74548;47.712;9.272;2024-03-02T10:26:45;94557.56;;;10.35;64.64
84358;BME280;74548;47.712;9.272;2024-03-02T10:29:11;94551.38;;;10.35;64.87
84358;BME280;74548;47.712;9.272;2024-03-02T10:31:41;94552.94;;;10.36;65.06
84358;BME280;74548;47.712;9.272;2024-03-02T10:34:08;94540.25;;;10.36;64.57
84358;BME280;74548;47.712;9.272;2024-03-02T10:36:34;94541.06;;;10.37;64.87
84358;BME280;74548;47.712;9.272;2024-03-02T10:39:06;94543.75;;;10.37;64.57
84358;BME280;74548;47.712;9.272;2024-03-02T10:41:35;94529.47;;;10.36;64.54
84358;BME280;74548;47.712;9.272;2024-03-02T10:44:03;94535.66;;;10.37;64.90
84358;BME280;74548;47.712;9.272;2024-03-02T10:48:41;94526.00;;;10.36;64.85
84358;BME280;74548;47.712;9.272;2024-03-02T10:51:09;94517.91;;;10.36;64.29
84358;BME280;74548;47.712;9.272;2024-03-02T10:53:34;94515.19;;;10.36;64.30
84358;BME280;74548;47.712;9.272;2024-03-02T10:56:00;94510.91;;;10.35;64.84
84358;BME280;74548;47.712;9.272;2024-03-02T10:58:31;94512.50;;;10.36;64.42
84358;BME280;74548;47.712;9.272;2024-03-02T11:01:01;94507.91;;;10.36;64.49
84358;BME280;74548;47.712;9.272;2024-03-02T11:03:29;94504.41;;;10.36;64.27
84358;BME280;74548;47.712;9.272;2024-03-02T11:05:56;94502.84;;;10.35;64.74
84358;BME280;74548;47.712;9.272;2024-03-02T11:08:23;94505.19;;;10.36;64.65
84358;BME280;74548;47.712;9.272;2024-03-02T11:10:51;94495.53;;;10.35;64.64
84358;BME280;74548;47.712;9.272;2024-03-02T11:13:22;94488.22;;;10.36;64.73
84358;BME280;74548;47.712;9.272;2024-03-02T11:15:52;94482.84;;;10.36;64.43
84358;BME280;74548;47.712;9.272;2024-03-02T11:18:19;94484.75;;;10.35;64.28
84358;BME280;74548;47.712;9.272;2024-03-02T11:20:45;94471.25;;;10.35;64.33
84358;BME280;74548;47.712;9.272;2024-03-02T11:23:11;94472.84;;;10.36;64.32
84358;BME280;74548;47.712;9.272;2024-03-02T11:25:37;94470.94;;;10.37;64.30
84358;BME280;74548;47.712;9.272;2024-03-02T11:28:06;94458.56;;;10.36;64.44
84358;BME280;74548;47.712;9.272;2024-03-02T11:33:07;94450.47;;;10.36;64.14
84358;BME280;74548;47.712;9.272;2024-03-02T11:35:33;94448.28;;;10.38;64.83
84358;BME280;74548;47.712;9.272;2024-03-02T11:37:58;94456.34;;;10.38;64.37
84358;BME280;74548;47.712;9.272;2024-03-02T11:42:51;94446.38;;;10.38;64.50
84358;BME280;74548;47.712;9.272;2024-03-02T11:45:22;94440.97;;;10.38;64.90
84358;BME280;74548;47.712;9.272;2024-03-02T11:50:34;94425.59;;;10.48;65.59
84358;BME280;74548;47.712;9.272;2024-03-02T11:53:00;94424.31;;;10.62;65.02
84358;BME280;74548;47.712;9.272;2024-03-02T11:55:26;94413.69;;;10.75;63.50
84358;BME280;74548;47.712;9.272;2024-03-02T11:57:54;94405.09;;;10.90;63.83
84358;BME280;74548;47.712;9.272;2024-03-02T12:00:20;94397.94;;;11.11;63.26
84358;BME280;74548;47.712;9.272;2024-03-02T12:02:47;94398.06;;;11.32;62.88
84358;BME280;74548;47.712;9.272;2024-03-02T12:05:19;94390.03;;;11.53;62.66
84358;BME280;74548;47.712;9.272;2024-03-02T12:07:44;94385.66;;;11.70;62.07
84358;BME280;74548;47.712;9.272;2024-03-02T12:10:12;94384.38;;;11.84;61.84
84358;BME280;74548;47.712;9.272;2024-03-02T12:12:37;94382.56;;;11.97;61.50
84358;BME280;74548;47.712;9.272;2024-03-02T12:15:02;94379.16;;;12.09;61.27
84358;BME280;74548;47.712;9.272;2024-03-02T12:17:29;94381.47;;;12.19;61.03
84358;BME280;74548;47.712;9.272;2024-03-02T12:19:54;94373.31;;;12.28;61.00
84358;BME280;74548;47.712;9.272;2024-03-02T12:22:21;94368.63;;;12.37;60.58
84358;BME280;74548;47.712;9.272;2024-03-02T12:27:11;94361.03;;;12.51;60.33
84358;BME280;74548;47.712;9.272;2024-03-02T12:29:37;94360.50;;;12.58;60.25
84358;BME280;74548;47.712;9.272;2024-03-02T12:32:03;94349.47;;;12.63;59.82
84358;BME280;74548;47.712;9.272;2024-03-02T12:34:29;94342.28;;;12.67;59.84
84358;BME280;74548;47.712;9.272;2024-03-02T12:36:54;94338.59;;;12.72;59.46
84358;BME280;74548;47.712;9.272;2024-03-02T12:39:20;94338.72;;;12.75;59.97
84358;BME280;74548;47.712;9.272;2024-03-02T12:41:46;94329.56;;;12.80;59.87
84358;BME280;74548;47.712;9.272;2024-03-02T12:44:12;94328.91;;;12.83;59.47
84358;BME280;74548;47.712;9.272;2024-03-02T12:46:37;94320.47;;;12.85;59.50
84358;BME280;74548;47.712;9.272;2024-03-02T12:49:13;94327.59;;;12.89;59.44
84358;BME280;74548;47.712;9.272;2024-03-02T12:51:40;94317.22;;;12.91;59.18
84358;BME280;74548;47.712;9.272;2024-03-02T12:56:32;94310.78;;;12.96;59.04
84358;BME280;74548;47.712;9.272;2024-03-02T12:58:58;94311.25;;;12.98;59.01
84358;BME280;74548;47.712;9.272;2024-03-02T13:03:39;94297.03;;;13.01;59.02
84358;BME280;74548;47.712;9.272;2024-03-02T13:06:08;94297.47;;;13.03;58.97
84358;BME280;74548;47.712;9.272;2024-03-02T13:08:34;94306.06;;;13.05;58.86
84358;BME280;74548;47.712;9.272;2024-03-02T13:10:59;94300.34;;;13.07;58.94
84358;BME280;74548;47.712;9.272;2024-03-02T13:13:25;94294.91;;;13.07;58.75
84358;BME280;74548;47.712;9.272;2024-03-02T13:15:55;94293.78;;;13.08;58.81
84358;BME280;74548;47.712;9.272;2024-03-02T13:18:21;94293.44;;;13.09;58.75
84358;BME280;74548;47.712;9.272;2024-03-02T13:20:46;94291.50;;;13.10;58.71
84358;BME280;74548;47.712;9.272;2024-03-02T13:23:12;94286.56;;;13.12;59.12
84358;BME280;74548;47.712;9.272;2024-03-02T13:25:37;94278.44;;;13.12;59.13
84358;BME280;74548;47.712;9.272;2024-03-02T13:28:03;94281.63;;;13.14;58.98
84358;BME280;74548;47.712;9.272;2024-03-02T13:32:55;94276.63;;;13.16;59.02
84358;BME280;74548;47.712;9.272;2024-03-02T13:37:38;94267.72;;;13.15;59.17
84358;BME280;74548;47.712;9.272;2024-03-02T13:40:04;94268.97;;;13.18;58.98
84358;BME280;74548;47.712;9.272;2024-03-02T13:42:31;94267.84;;;13.19;59.04
84358;BME280;74548;47.712;9.272;2024-03-02T13:47:26;94265.41;;;13.26;58.79